sensor_id;sensor_type;location;lat;lon;timestamp;pressure;altitude;pressure_sealevel;temperature;humidity
65280;BME280;51878;55.748;48.742;2023-12-20T00:00:59;97258.25;;;-0.54;100.00
65280;BME280;51878;55.748;48.742;2023-12-20T00:06:01;97250.63;;;-0.57;100.00
65280;BME280;51878;55.748;48.742;2023-12-20T00:11:03;97206.78;;;-0.77;100.00
65280;BME280;51878;55.748;48.742;2023-12-20T00:16:06;97234.66;;;-0.57;100.00
65280;BME280;51878;55.748;48.742;2023-12-20T00:21:08;97254.94;;;-0.48;100.00
65280;BME280;51878;55.748;48.742;2023-12-20T00:26:10;97170.56;;;-0.87;100.00
65280;BME280;51878;55.748;48.742;2023-12-20T00:31:13;97174.25;;;-0.96;100.00
65280;BME280;51878;55.748;48.742;2023-12-20T00:36:15;97176.84;;;-0.71;100.00
65280;BME280;51878;55.748;48.742;2023-12-20T00:41:18;97247.75;;;-0.39;100.00
65280;BME280;51878;55.748;48.742;2023-12-20T00:46:20;97132.72;;;-0.97;100.00
65280;BME280;51878;55.748;48.742;2023-12-20T00:51:22;97252.16;;;-0.23;100.00
65280;BME280;51878;55.748;48.742;2023-12-20T00:56:25;97249.06;;;-0.35;100.00
65280;BME280;51878;55.748;48.742;2023-12-20T01:01:27;97259.31;;;-0.15;100.00
65280;BME280;51878;55.748;48.742;2023-12-20T01:06:29;97247.06;;;-0.33;100.00
65280;BME280;51878;55.748;48.742;2023-12-20T01:11:31;97212.38;;;-0.64;100.00
65280;BME280;51878;55.748;48.742;2023-12-20T01:16:33;97214.13;;;-0.40;100.00
65280;BME280;51878;55.748;48.742;2023-12-20T01:21:36;97199.34;;;-0.43;100.00
65280;BME280;51878;55.748;48.742;2023-12-20T01:26:38;97166.53;;;-0.66;100.00
65280;BME280;51878;55.748;48.742;2023-12-20T01:31:40;97226.69;;;-0.17;100.00
65280;BME280;51878;55.748;48.742;2023-12-20T01:36:43;97184.56;;;-0.45;100.00
65280;BME280;51878;55.748;48.742;2023-12-20T01:41:45;97191.22;;;-0.49;100.00
65280;BME280;51878;55.748;48.742;2023-12-20T01:46:48;97222.88;;;-0.23;100.00
65280;BME280;51878;55.748;48.742;2023-12-20T01:51:50;97243.81;;;-0.20;100.00
65280;BME280;51878;55.748;48.742;2023-12-20T01:56:52;97205.47;;;-0.42;100.00
65280;BME280;51878;55.748;48.742;2023-12-20T02:01:55;97211.31;;;-0.47;100.00
65280;BME280;51878;55.748;48.742;2023-12-20T02:06:58;97231.34;;;-0.19;100.00
65280;BME280;51878;55.748;48.742;2023-12-20T02:12:01;97222.88;;;-0.23;100.00
65280;BME280;51878;55.748;48.742;2023-12-20T02:17:03;97222.72;;;-0.22;100.00
65280;BME280;51878;55.748;48.742;2023-12-20T02:22:10;97146.72;;;-0.64;100.00
65280;BME280;51878;55.748;48.742;2023-12-20T02:27:12;97228.34;;;-0.16;100.00
65280;BME280;51878;55.748;48.742;2023-12-20T02:32:15;97188.38;;;-0.39;100.00
65280;BME280;51878;55.748;48.742;2023-12-20T02:37:18;97228.34;;;-0.16;100.00
65280;BME280;51878;55.748;48.742;2023-12-20T02:42:20;97232.47;;;-0.14;100.00
65280;BME280;51878;55.748;48.742;2023-12-20T02:47:22;97256.25;;;-0.04;100.00
65280;BME280;51878;55.748;48.742;2023-12-20T02:52:25;97164.34;;;-0.63;100.00
65280;BME280;51878;55.748;48.742;2023-12-20T02:57:27;97233.50;;;-0.15;100.00
65280;BME280;51878;55.748;48.742;2023-12-20T03:02:29;97265.06;;;-0.04;100.00
65280;BME280;51878;55.748;48.742;2023-12-20T03:07:31;97191.06;;;-0.48;100.00
65280;BME280;51878;55.748;48.742;2023-12-20T03:12:34;97262.69;;;0.02;100.00
65280;BME280;51878;55.748;48.742;2023-12-20T03:17:36;97257.22;;;-0.05;100.00
65280;BME280;51878;55.748;48.742;2023-12-20T03:22:38;97270.53;;;0.03;100.00
65280;BME280;51878;55.748;48.742;2023-12-20T03:27:41;97257.06;;;-0.04;100.00
65280;BME280;51878;55.748;48.742;2023-12-20T03:32:43;97264.53;;;0.01;100.00
65280;BME280;51878;55.748;48.742;2023-12-20T03:37:45;97222.72;;;-0.22;100.00
65280;BME280;51878;55.748;48.742;2023-12-20T03:42:48;97233.53;;;-0.23;100.00
65280;BME280;51878;55.748;48.742;2023-12-20T03:47:50;97306.59;;;0.14;100.00
65280;BME280;51878;55.748;48.742;2023-12-20T03:52:57;97286.81;;;0.08;100.00
65280;BME280;51878;55.748;48.742;2023-12-20T03:57:59;97261.97;;;-0.15;100.00
65280;BME280;51878;55.748;48.742;2023-12-20T04:03:01;97303.56;;;0.17;100.00
65280;BME280;51878;55.748;48.742;2023-12-20T04:08:04;97316.91;;;0.17;100.00
65280;BME280;51878;55.748;48.742;2023-12-20T04:13:06;97315.06;;;0.17;100.00
65280;BME280;51878;55.748;48.742;2023-12-20T04:18:08;97270.09;;;-0.09;100.00
65280;BME280;51878;55.748;48.742;2023-12-20T04:23:11;97254.94;;;-0.08;100.00
65280;BME280;51878;55.748;48.742;2023-12-20T04:28:13;97317.56;;;0.19;100.00
65280;BME280;51878;55.748;48.742;2023-12-20T04:33:15;97337.03;;;0.19;100.00
65280;BME280;51878;55.748;48.742;2023-12-20T04:38:17;97313.94;;;0.12;100.00
65280;BME280;51878;55.748;48.742;2023-12-20T04:43:19;97304.09;;;0.12;100.00
65280;BME280;51878;55.748;48.742;2023-12-20T04:48:22;97348.47;;;0.28;100.00
65280;BME280;51878;55.748;48.742;2023-12-20T04:53:24;97244.41;;;-0.33;100.00
65280;BME280;51878;55.748;48.742;2023-12-20T04:58:26;97298.22;;;-0.14;100.00
65280;BME280;51878;55.748;48.742;2023-12-20T05:03:28;97249.59;;;-0.39;100.00
65280;BME280;51878;55.748;48.742;2023-12-20T05:08:31;97301.16;;;-0.01;100.00
65280;BME280;51878;55.748;48.742;2023-12-20T05:13:33;97309.03;;;-0.08;100.00
65280;BME280;51878;55.748;48.742;2023-12-20T05:18:42;97318.63;;;0.02;100.00
65280;BME280;51878;55.748;48.742;2023-12-20T05:23:45;97291.56;;;-0.10;100.00
65280;BME280;51878;55.748;48.742;2023-12-20T05:28:47;97246.06;;;-0.40;100.00
65280;BME280;51878;55.748;48.742;2023-12-20T05:33:49;97366.97;;;0.30;100.00
65280;BME280;51878;55.748;48.742;2023-12-20T05:38:52;97382.22;;;0.44;100.00
65280;BME280;51878;55.748;48.742;2023-12-20T05:43:55;97368.94;;;0.36;100.00
65280;BME280;51878;55.748;48.742;2023-12-20T05:48:57;97357.81;;;0.24;100.00
65280;BME280;51878;55.748;48.742;2023-12-20T05:53:59;97412.81;;;0.56;100.00
65280;BME280;51878;55.748;48.742;2023-12-20T05:59:02;97402.00;;;0.58;100.00
65280;BME280;51878;55.748;48.742;2023-12-20T06:04:04;97392.69;;;0.54;100.00
65280;BME280;51878;55.748;48.742;2023-12-20T06:09:06;97413.44;;;0.67;100.00
65280;BME280;51878;55.748;48.742;2023-12-20T06:14:09;97354.34;;;0.24;100.00
65280;BME280;51878;55.748;48.742;2023-12-20T06:19:11;97393.19;;;0.49;100.00
65280;BME280;51878;55.748;48.742;2023-12-20T06:24:13;97422.13;;;0.60;100.00
65280;BME280;51878;55.748;48.742;2023-12-20T06:29:16;97423.59;;;0.71;100.00
65280;BME280;51878;55.748;48.742;2023-12-20T06:34:18;97374.41;;;0.43;100.00
65280;BME280;51878;55.748;48.742;2023-12-20T06:39:20;97463.19;;;0.82;100.00
65280;BME280;51878;55.748;48.742;2023-12-20T06:44:23;97391.91;;;0.37;100.00
65280;BME280;51878;55.748;48.742;2023-12-20T06:49:25;97429.44;;;0.67;100.00
65280;BME280;51878;55.748;48.742;2023-12-20T06:54:27;97455.38;;;0.81;100.00
65280;BME280;51878;55.748;48.742;2023-12-20T06:59:29;97447.34;;;0.81;100.00
65280;BME280;51878;55.748;48.742;2023-12-20T07:04:31;97475.31;;;0.93;100.00
65280;BME280;51878;55.748;48.742;2023-12-20T07:09:34;97424.56;;;0.70;100.00
65280;BME280;51878;55.748;48.742;2023-12-20T07:14:36;97412.78;;;0.65;100.00
65280;BME280;51878;55.748;48.742;2023-12-20T07:19:39;97394.31;;;0.55;100.00
65280;BME280;51878;55.748;48.742;2023-12-20T07:24:41;97453.63;;;0.96;100.00
65280;BME280;51878;55.748;48.742;2023-12-20T07:29:43;97430.63;;;0.95;100.00
65280;BME280;51878;55.748;48.742;2023-12-20T07:34:45;97387.25;;;0.70;100.00
65280;BME280;51878;55.748;48.742;2023-12-20T07:39:48;97431.16;;;0.91;100.00
65280;BME280;51878;55.748;48.742;2023-12-20T07:44:50;97425.59;;;1.00;100.00
65280;BME280;51878;55.748;48.742;2023-12-20T07:49:52;97410.38;;;0.78;100.00
65280;BME280;51878;55.748;48.742;2023-12-20T07:54:54;97451.97;;;1.18;100.00
65280;BME280;51878;55.748;48.742;2023-12-20T07:59:57;97460.00;;;1.18;100.00
65280;BME280;51878;55.748;48.742;2023-12-20T08:04:59;97443.38;;;1.08;100.00
65280;BME280;51878;55.748;48.742;2023-12-20T08:10:02;97447.00;;;1.15;100.00
65280;BME280;51878;55.748;48.742;2023-12-20T08:15:05;97360.53;;;0.55;100.00
65280;BME280;51878;55.748;48.742;2023-12-20T08:20:07;97459.88;;;1.12;100.00
65280;BME280;51878;55.748;48.742;2023-12-20T08:25:11;97433.50;;;0.86;100.00
65280;BME280;51878;55.748;48.742;2023-12-20T08:30:13;97432.72;;;0.77;100.00
65280;BME280;51878;55.748;48.742;2023-12-20T08:35:16;97468.28;;;1.00;100.00
65280;BME280;51878;55.748;48.742;2023-12-20T08:40:20;97486.59;;;1.03;100.00
65280;BME280;51878;55.748;48.742;2023-12-20T08:45:22;97492.81;;;0.96;100.00
65280;BME280;51878;55.748;48.742;2023-12-20T08:50:24;97436.09;;;0.71;100.00
65280;BME280;51878;55.748;48.742;2023-12-20T08:55:27;97409.63;;;0.61;100.00
65280;BME280;51878;55.748;48.742;2023-12-20T09:00:31;97422.41;;;0.74;100.00
65280;BME280;51878;55.748;48.742;2023-12-20T09:05:33;97428.66;;;0.89;100.00
65280;BME280;51878;55.748;48.742;2023-12-20T09:10:35;97406.38;;;0.82;100.00
65280;BME280;51878;55.748;48.742;2023-12-20T09:15:38;97458.28;;;0.94;100.00
65280;BME280;51878;55.748;48.742;2023-12-20T09:20:40;97473.06;;;1.05;100.00
65280;BME280;51878;55.748;48.742;2023-12-20T09:25:43;97467.28;;;1.01;100.00
65280;BME280;51878;55.748;48.742;2023-12-20T09:30:46;97452.00;;;0.87;100.00
65280;BME280;51878;55.748;48.742;2023-12-20T09:35:49;97482.44;;;1.01;100.00
65280;BME280;51878;55.748;48.742;2023-12-20T09:40:52;97485.28;;;0.99;100.00
65280;BME280;51878;55.748;48.742;2023-12-20T09:46:00;97476.66;;;0.89;100.00
65280;BME280;51878;55.748;48.742;2023-12-20T09:51:04;97480.13;;;0.98;100.00
65280;BME280;51878;55.748;48.742;2023-12-20T09:56:08;97457.25;;;0.72;100.00
65280;BME280;51878;55.748;48.742;2023-12-20T10:01:10;97487.50;;;0.88;100.00
65280;BME280;51878;55.748;48.742;2023-12-20T10:06:13;97531.34;;;0.93;100.00
65280;BME280;51878;55.748;48.742;2023-12-20T10:11:31;97505.00;;;0.90;100.00
65280;BME280;51878;55.748;48.742;2023-12-20T10:16:34;97448.56;;;0.70;100.00
65280;BME280;51878;55.748;48.742;2023-12-20T10:21:36;97460.75;;;0.73;100.00
65280;BME280;51878;55.748;48.742;2023-12-20T10:26:38;97500.78;;;1.04;100.00
65280;BME280;51878;55.748;48.742;2023-12-20T10:31:41;97513.41;;;1.10;100.00
65280;BME280;51878;55.748;48.742;2023-12-20T10:36:44;97516.47;;;0.99;100.00
65280;BME280;51878;55.748;48.742;2023-12-20T10:41:47;97505.47;;;1.02;100.00
65280;BME280;51878;55.748;48.742;2023-12-20T10:46:50;97462.94;;;0.69;100.00
65280;BME280;51878;55.748;48.742;2023-12-20T10:51:59;97444.31;;;0.53;100.00
65280;BME280;51878;55.748;48.742;2023-12-20T10:57:05;97493.09;;;0.70;100.00
65280;BME280;51878;55.748;48.742;2023-12-20T11:02:08;97528.34;;;0.88;100.00
65280;BME280;51878;55.748;48.742;2023-12-20T11:07:29;97509.38;;;0.83;100.00
65280;BME280;51878;55.748;48.742;2023-12-20T11:12:46;97492.91;;;0.71;100.00
65280;BME280;51878;55.748;48.742;2023-12-20T11:17:56;97491.84;;;0.89;100.00
65280;BME280;51878;55.748;48.742;2023-12-20T11:22:59;97513.59;;;0.69;100.00
65280;BME280;51878;55.748;48.742;2023-12-20T11:28:11;97500.38;;;0.84;100.00
65280;BME280;51878;55.748;48.742;2023-12-20T11:33:14;97491.06;;;0.80;100.00
65280;BME280;51878;55.748;48.742;2023-12-20T11:38:20;97536.59;;;1.10;100.00
65280;BME280;51878;55.748;48.742;2023-12-20T11:43:35;97489.72;;;0.84;100.00
65280;BME280;51878;55.748;48.742;2023-12-20T11:48:38;97492.69;;;0.81;100.00
65280;BME280;51878;55.748;48.742;2023-12-20T11:53:42;97553.13;;;1.05;100.00
65280;BME280;51878;55.748;48.742;2023-12-20T11:58:44;97540.66;;;0.97;100.00
65280;BME280;51878;55.748;48.742;2023-12-20T12:04:02;97553.41;;;1.10;100.00
65280;BME280;51878;55.748;48.742;2023-12-20T12:09:05;97561.66;;;1.00;100.00
65280;BME280;51878;55.748;48.742;2023-12-20T12:14:07;97569.28;;;1.03;100.00
65280;BME280;51878;55.748;48.742;2023-12-20T12:19:21;97419.75;;;0.26;100.00
65280;BME280;51878;55.748;48.742;2023-12-20T12:24:24;97504.78;;;0.69;100.00
65280;BME280;51878;55.748;48.742;2023-12-20T12:29:27;97479.50;;;0.48;100.00
65280;BME280;51878;55.748;48.742;2023-12-20T12:34:29;97553.22;;;0.80;100.00
65280;BME280;51878;55.748;48.742;2023-12-20T12:39:32;97497.63;;;0.53;100.00
65280;BME280;51878;55.748;48.742;2023-12-20T12:44:34;97474.53;;;0.37;100.00
65280;BME280;51878;55.748;48.742;2023-12-20T12:49:36;97559.50;;;0.96;100.00
65280;BME280;51878;55.748;48.742;2023-12-20T12:54:38;97566.53;;;0.89;100.00
65280;BME280;51878;55.748;48.742;2023-12-20T12:59:42;97511.84;;;0.45;100.00
65280;BME280;51878;55.748;48.742;2023-12-20T13:04:45;97529.13;;;0.57;100.00
65280;BME280;51878;55.748;48.742;2023-12-20T13:09:48;97554.72;;;0.83;100.00
65280;BME280;51878;55.748;48.742;2023-12-20T13:14:50;97565.38;;;0.83;100.00
65280;BME280;51878;55.748;48.742;2023-12-20T13:19:52;97585.06;;;0.82;100.00
65280;BME280;51878;55.748;48.742;2023-12-20T13:24:54;97541.59;;;0.65;100.00
65280;BME280;51878;55.748;48.742;2023-12-20T13:29:58;97581.91;;;0.78;100.00
65280;BME280;51878;55.748;48.742;2023-12-20T13:35:00;97611.19;;;0.95;100.00
65280;BME280;51878;55.748;48.742;2023-12-20T13:40:05;97632.69;;;1.01;100.00
65280;BME280;51878;55.748;48.742;2023-12-20T13:45:08;97561.59;;;0.61;100.00
65280;BME280;51878;55.748;48.742;2023-12-20T13:50:10;97609.16;;;1.05;100.00
65280;BME280;51878;55.748;48.742;2023-12-20T13:55:12;97619.88;;;0.89;100.00
65280;BME280;51878;55.748;48.742;2023-12-20T14:00:15;97557.59;;;0.73;100.00
65280;BME280;51878;55.748;48.742;2023-12-20T14:05:17;97601.22;;;0.89;100.00
65280;BME280;51878;55.748;48.742;2023-12-20T14:10:20;97568.41;;;0.72;100.00
65280;BME280;51878;55.748;48.742;2023-12-20T14:15:22;97500.19;;;0.38;100.00
65280;BME280;51878;55.748;48.742;2023-12-20T14:20:27;97606.41;;;0.82;100.00
65280;BME280;51878;55.748;48.742;2023-12-20T14:25:31;97590.06;;;0.77;100.00
65280;BME280;51878;55.748;48.742;2023-12-20T14:30:39;97581.44;;;0.67;100.00
65280;BME280;51878;55.748;48.742;2023-12-20T14:35:42;97526.00;;;0.46;100.00
65280;BME280;51878;55.748;48.742;2023-12-20T14:40:46;97634.19;;;1.04;100.00
65280;BME280;51878;55.748;48.742;2023-12-20T14:45:49;97648.50;;;1.11;100.00
65280;BME280;51878;55.748;48.742;2023-12-20T14:50:53;97587.59;;;0.75;100.00
65280;BME280;51878;55.748;48.742;2023-12-20T14:55:55;97643.19;;;1.03;100.00
65280;BME280;51878;55.748;48.742;2023-12-20T15:00:58;97625.38;;;0.87;100.00
65280;BME280;51878;55.748;48.742;2023-12-20T15:06:00;97640.50;;;1.03;100.00
65280;BME280;51878;55.748;48.742;2023-12-20T15:11:02;97622.56;;;0.89;100.00
65280;BME280;51878;55.748;48.742;2023-12-20T15:16:05;97588.13;;;0.54;100.00
65280;BME280;51878;55.748;48.742;2023-12-20T15:21:08;97651.69;;;1.07;100.00
65280;BME280;51878;55.748;48.742;2023-12-20T15:26:10;97604.41;;;0.76;100.00
65280;BME280;51878;55.748;48.742;2023-12-20T15:31:12;97637.06;;;0.86;100.00
65280;BME280;51878;55.748;48.742;2023-12-20T15:36:14;97619.59;;;0.75;100.00
65280;BME280;51878;55.748;48.742;2023-12-20T15:41:23;97703.53;;;1.12;100.00
65280;BME280;51878;55.748;48.742;2023-12-20T15:46:27;97686.84;;;1.10;100.00
65280;BME280;51878;55.748;48.742;2023-12-20T15:51:29;97699.56;;;1.00;100.00
65280;BME280;51878;55.748;48.742;2023-12-20T15:56:32;97683.72;;;0.98;100.00
65280;BME280;51878;55.748;48.742;2023-12-20T16:01:35;97651.75;;;0.82;100.00
65280;BME280;51878;55.748;48.742;2023-12-20T16:06:37;97701.88;;;1.03;100.00
65280;BME280;51878;55.748;48.742;2023-12-20T16:11:40;97631.44;;;0.65;100.00
65280;BME280;51878;55.748;48.742;2023-12-20T16:16:44;97659.91;;;0.80;100.00
65280;BME280;51878;55.748;48.742;2023-12-20T16:21:46;97710.22;;;1.00;100.00
65280;BME280;51878;55.748;48.742;2023-12-20T16:26:49;97669.59;;;0.65;100.00
65280;BME280;51878;55.748;48.742;2023-12-20T16:31:52;97728.09;;;0.91;100.00
65280;BME280;51878;55.748;48.742;2023-12-20T16:36:54;97693.91;;;0.70;100.00
65280;BME280;51878;55.748;48.742;2023-12-20T16:41:57;97739.91;;;1.05;100.00
65280;BME280;51878;55.748;48.742;2023-12-20T16:46:59;97694.41;;;0.74;100.00
65280;BME280;51878;55.748;48.742;2023-12-20T16:52:02;97692.56;;;0.74;100.00
65280;BME280;51878;55.748;48.742;2023-12-20T16:57:06;97752.41;;;1.13;100.00
65280;BME280;51878;55.748;48.742;2023-12-20T17:02:09;97743.06;;;1.09;100.00
65280;BME280;51878;55.748;48.742;2023-12-20T17:07:11;97729.25;;;0.89;100.00
65280;BME280;51878;55.748;48.742;2023-12-20T17:12:13;97760.56;;;1.11;100.00
65280;BME280;51878;55.748;48.742;2023-12-20T17:17:16;97770.91;;;1.14;100.00
65280;BME280;51878;55.748;48.742;2023-12-20T17:22:18;97742.72;;;1.03;100.00
65280;BME280;51878;55.748;48.742;2023-12-20T17:27:23;97740.09;;;0.95;100.00
65280;BME280;51878;55.748;48.742;2023-12-20T17:32:27;97732.09;;;0.95;100.00
65280;BME280;51878;55.748;48.742;2023-12-20T17:37:29;97782.09;;;1.18;100.00
65280;BME280;51878;55.748;48.742;2023-12-20T17:42:31;97800.59;;;1.19;100.00
65280;BME280;51878;55.748;48.742;2023-12-20T17:47:33;97816.94;;;1.33;100.00
65280;BME280;51878;55.748;48.742;2023-12-20T17:52:36;97799.59;;;1.20;100.00
65280;BME280;51878;55.748;48.742;2023-12-20T17:57:38;97769.75;;;1.00;100.00
65280;BME280;51878;55.748;48.742;2023-12-20T18:02:40;97794.59;;;1.01;100.00
65280;BME280;51878;55.748;48.742;2023-12-20T18:07:43;97824.81;;;1.01;100.00
65280;BME280;51878;55.748;48.742;2023-12-20T18:12:48;97841.47;;;1.20;100.00
65280;BME280;51878;55.748;48.742;2023-12-20T18:17:50;97785.44;;;0.87;100.00
65280;BME280;51878;55.748;48.742;2023-12-20T18:22:53;97793.28;;;0.89;100.00
65280;BME280;51878;55.748;48.742;2023-12-20T18:27:56;97804.78;;;0.89;100.00
65280;BME280;51878;55.748;48.742;2023-12-20T18:32:58;97811.94;;;0.80;100.00
65280;BME280;51878;55.748;48.742;2023-12-20T18:38:00;97809.97;;;0.91;100.00
65280;BME280;51878;55.748;48.742;2023-12-20T18:43:02;97829.78;;;0.96;100.00
65280;BME280;51878;55.748;48.742;2023-12-20T18:48:05;97860.97;;;1.20;100.00
65280;BME280;51878;55.748;48.742;2023-12-20T18:53:08;97886.50;;;1.31;100.00
65280;BME280;51878;55.748;48.742;2023-12-20T18:58:10;97874.34;;;1.37;100.00
65280;BME280;51878;55.748;48.742;2023-12-20T19:03:15;97856.16;;;1.24;100.00
65280;BME280;51878;55.748;48.742;2023-12-20T19:08:18;97866.66;;;1.34;100.00
65280;BME280;51878;55.748;48.742;2023-12-20T19:13:20;97810.44;;;1.02;100.00
65280;BME280;51878;55.748;48.742;2023-12-20T19:18:22;97814.28;;;1.00;100.00
65280;BME280;51878;55.748;48.742;2023-12-20T19:23:25;97886.66;;;1.30;100.00
65280;BME280;51878;55.748;48.742;2023-12-20T19:28:28;97770.91;;;0.57;100.00
65280;BME280;51878;55.748;48.742;2023-12-20T19:33:40;97839.81;;;0.86;100.00
65280;BME280;51878;55.748;48.742;2023-12-20T19:38:43;97801.75;;;0.68;100.00
65280;BME280;51878;55.748;48.742;2023-12-20T19:43:46;97912.38;;;1.31;100.00
65280;BME280;51878;55.748;48.742;2023-12-20T19:48:50;97925.22;;;1.27;100.00
65280;BME280;51878;55.748;48.742;2023-12-20T19:53:53;97913.38;;;1.21;100.00
65280;BME280;51878;55.748;48.742;2023-12-20T19:58:55;97907.03;;;1.06;100.00
65280;BME280;51878;55.748;48.742;2023-12-20T20:03:57;97904.34;;;1.06;100.00
65280;BME280;51878;55.748;48.742;2023-12-20T20:09:00;97827.22;;;0.54;100.00
65280;BME280;51878;55.748;48.742;2023-12-20T20:14:04;97886.78;;;0.79;100.00
65280;BME280;51878;55.748;48.742;2023-12-20T20:19:07;97931.50;;;0.93;100.00
65280;BME280;51878;55.748;48.742;2023-12-20T20:24:09;97872.09;;;0.67;100.00
65280;BME280;51878;55.748;48.742;2023-12-20T20:29:11;97899.81;;;0.90;100.00
65280;BME280;51878;55.748;48.742;2023-12-20T20:34:14;97890.81;;;0.91;100.00
65280;BME280;51878;55.748;48.742;2023-12-20T20:39:17;97931.88;;;1.07;100.00
65280;BME280;51878;55.748;48.742;2023-12-20T20:44:20;97966.75;;;1.30;100.00
65280;BME280;51878;55.748;48.742;2023-12-20T20:49:22;97925.16;;;0.94;100.00
65280;BME280;51878;55.748;48.742;2023-12-20T20:54:26;97912.34;;;0.98;100.00
65280;BME280;51878;55.748;48.742;2023-12-20T20:59:28;97985.47;;;1.38;100.00
65280;BME280;51878;55.748;48.742;2023-12-20T21:04:30;97979.78;;;1.24;100.00
65280;BME280;51878;55.748;48.742;2023-12-20T21:09:33;97941.03;;;1.04;100.00
65280;BME280;51878;55.748;48.742;2023-12-20T21:14:35;97938.50;;;0.86;100.00
65280;BME280;51878;55.748;48.742;2023-12-20T21:19:37;97925.09;;;0.70;100.00
65280;BME280;51878;55.748;48.742;2023-12-20T21:24:40;97966.19;;;0.93;100.00
65280;BME280;51878;55.748;48.742;2023-12-20T21:29:42;97945.28;;;0.72;100.00
65280;BME280;51878;55.748;48.742;2023-12-20T21:34:44;97971.69;;;0.92;100.00
65280;BME280;51878;55.748;48.742;2023-12-20T21:39:46;97971.72;;;1.00;100.00
65280;BME280;51878;55.748;48.742;2023-12-20T21:44:49;98018.28;;;1.14;100.00
65280;BME280;51878;55.748;48.742;2023-12-20T21:49:51;98007.91;;;1.02;100.00
65280;BME280;51878;55.748;48.742;2023-12-20T21:54:53;97971.34;;;0.87;100.00
65280;BME280;51878;55.748;48.742;2023-12-20T21:59:55;97969.50;;;0.87;100.00
65280;BME280;51878;55.748;48.742;2023-12-20T22:04:58;97984.97;;;0.83;100.00
65280;BME280;51878;55.748;48.742;2023-12-20T22:10:01;97929.91;;;0.58;100.00
65280;BME280;51878;55.748;48.742;2023-12-20T22:15:05;97951.22;;;0.58;100.00
65280;BME280;51878;55.748;48.742;2023-12-20T22:20:07;98006.03;;;0.95;100.00
65280;BME280;51878;55.748;48.742;2023-12-20T22:25:11;97988.66;;;0.82;100.00
65280;BME280;51878;55.748;48.742;2023-12-20T22:30:13;97961.72;;;0.51;100.00
65280;BME280;51878;55.748;48.742;2023-12-20T22:35:16;97933.34;;;0.42;100.00
65280;BME280;51878;55.748;48.742;2023-12-20T22:40:18;97993.75;;;0.68;100.00
65280;BME280;51878;55.748;48.742;2023-12-20T22:45:21;98016.97;;;0.75;100.00
65280;BME280;51878;55.748;48.742;2023-12-20T22:50:23;97979.34;;;0.52;100.00
65280;BME280;51878;55.748;48.742;2023-12-20T22:55:25;98017.97;;;0.74;100.00
65280;BME280;51878;55.748;48.742;2023-12-20T23:00:27;97992.38;;;0.55;100.00
65280;BME280;51878;55.748;48.742;2023-12-20T23:05:30;98036.69;;;0.82;100.00
65280;BME280;51878;55.748;48.742;2023-12-20T23:10:32;97965.69;;;0.47;100.00
65280;BME280;51878;55.748;48.742;2023-12-20T23:15:36;97995.69;;;0.49;100.00
65280;BME280;51878;55.748;48.742;2023-12-20T23:20:38;97883.81;;;-0.03;100.00
65280;BME280;51878;55.748;48.742;2023-12-20T23:25:40;98041.88;;;0.84;100.00
65280;BME280;51878;55.748;48.742;2023-12-20T23:30:43;97974.03;;;0.52;100.00
65280;BME280;51878;55.748;48.742;2023-12-20T23:35:45;97990.13;;;0.69;100.00
65280;BME280;51878;55.748;48.742;2023-12-20T23:40:47;98005.81;;;0.80;100.00
65280;BME280;51878;55.748;48.742;2023-12-20T23:45:50;98015.13;;;0.76;100.00
65280;BME280;51878;55.748;48.742;2023-12-20T23:50:52;98010.63;;;0.76;100.00
65280;BME280;51878;55.748;48.742;2023-12-20T23:55:54;97988.38;;;0.59;100.00
